sensor_id;sensor_type;location;lat;lon;timestamp;P1;durP1;ratioP1;P2;durP2;ratioP2
81231;SDS011;70703;55.652;37.710;2023-07-02T00:00:00;13.10;;;9.15;;
81231;SDS011;70703;55.652;37.710;2023-07-02T00:00:20;14.10;;;9.40;;
81231;SDS011;70703;55.652;37.710;2023-07-02T00:00:35;14.95;;;9.27;;
81231;SDS011;70703;55.652;37.710;2023-07-02T00:00:49;15.98;;;9.35;;
81231;SDS011;70703;55.652;37.710;2023-07-02T00:01:02;16.83;;;9.77;;
81231;SDS011;70703;55.652;37.710;2023-07-02T00:01:35;14.20;;;8.73;;
81231;SDS011;70703;55.652;37.710;2023-07-02T00:01:47;13.50;;;8.50;;
81231;SDS011;70703;55.652;37.710;2023-07-02T00:01:59;13.57;;;8.57;;
81231;SDS011;70703;55.652;37.710;2023-07-02T00:02:10;15.05;;;8.63;;
81231;SDS011;70703;55.652;37.710;2023-07-02T00:02:23;16.13;;;9.00;;
81231;SDS011;70703;55.652;37.710;2023-07-02T00:02:34;15.38;;;9.30;;
81231;SDS011;70703;55.652;37.710;2023-07-02T00:02:46;14.27;;;9.55;;
81231;SDS011;70703;55.652;37.710;2023-07-02T00:03:00;13.80;;;9.45;;
81231;SDS011;70703;55.652;37.710;2023-07-02T00:03:11;13.52;;;9.13;;
81231;SDS011;70703;55.652;37.710;2023-07-02T00:03:22;12.57;;;9.05;;
81231;SDS011;70703;55.652;37.710;2023-07-02T00:03:35;15.77;;;9.15;;
81231;SDS011;70703;55.652;37.710;2023-07-02T00:03:48;15.32;;;8.95;;
81231;SDS011;70703;55.652;37.710;2023-07-02T00:04:00;14.80;;;8.88;;
81231;SDS011;70703;55.652;37.710;2023-07-02T00:04:11;14.52;;;9.05;;
81231;SDS011;70703;55.652;37.710;2023-07-02T00:04:26;13.32;;;9.07;;
81231;SDS011;70703;55.652;37.710;2023-07-02T00:04:40;12.55;;;8.70;;
81231;SDS011;70703;55.652;37.710;2023-07-02T00:04:52;12.32;;;8.77;;
81231;SDS011;70703;55.652;37.710;2023-07-02T00:05:05;13.35;;;8.70;;
81231;SDS011;70703;55.652;37.710;2023-07-02T00:05:18;14.27;;;8.82;;
81231;SDS011;70703;55.652;37.710;2023-07-02T00:05:30;13.52;;;8.90;;
81231;SDS011;70703;55.652;37.710;2023-07-02T00:05:41;14.23;;;8.63;;
81231;SDS011;70703;55.652;37.710;2023-07-02T00:05:54;13.73;;;8.40;;
81231;SDS011;70703;55.652;37.710;2023-07-02T00:06:07;12.15;;;8.50;;
81231;SDS011;70703;55.652;37.710;2023-07-02T00:06:21;13.95;;;9.02;;
81231;SDS011;70703;55.652;37.710;2023-07-02T00:06:32;15.65;;;9.07;;
81231;SDS011;70703;55.652;37.710;2023-07-02T00:06:52;14.13;;;8.63;;
81231;SDS011;70703;55.652;37.710;2023-07-02T00:07:04;12.68;;;8.73;;
81231;SDS011;70703;55.652;37.710;2023-07-02T00:07:17;16.52;;;9.02;;
81231;SDS011;70703;55.652;37.710;2023-07-02T00:07:29;16.95;;;9.07;;
81231;SDS011;70703;55.652;37.710;2023-07-02T00:07:42;14.45;;;8.95;;
81231;SDS011;70703;55.652;37.710;2023-07-02T00:07:56;11.82;;;8.55;;
81231;SDS011;70703;55.652;37.710;2023-07-02T00:08:09;12.95;;;8.27;;
81231;SDS011;70703;55.652;37.710;2023-07-02T00:08:22;12.32;;;8.15;;
81231;SDS011;70703;55.652;37.710;2023-07-02T00:08:34;13.45;;;8.45;;
81231;SDS011;70703;55.652;37.710;2023-07-02T00:08:45;14.60;;;8.50;;
81231;SDS011;70703;55.652;37.710;2023-07-02T00:08:58;15.65;;;8.48;;
81231;SDS011;70703;55.652;37.710;2023-07-02T00:09:09;14.20;;;8.20;;
81231;SDS011;70703;55.652;37.710;2023-07-02T00:09:23;12.40;;;8.10;;
81231;SDS011;70703;55.652;37.710;2023-07-02T00:09:35;12.68;;;8.38;;
81231;SDS011;70703;55.652;37.710;2023-07-02T00:09:47;13.32;;;8.38;;
81231;SDS011;70703;55.652;37.710;2023-07-02T00:09:58;13.18;;;8.40;;
81231;SDS011;70703;55.652;37.710;2023-07-02T00:10:10;14.45;;;8.23;;
81231;SDS011;70703;55.652;37.710;2023-07-02T00:10:23;15.50;;;8.60;;
81231;SDS011;70703;55.652;37.710;2023-07-02T00:10:35;18.50;;;8.77;;
81231;SDS011;70703;55.652;37.710;2023-07-02T00:10:47;16.60;;;8.70;;
81231;SDS011;70703;55.652;37.710;2023-07-02T00:10:58;12.20;;;8.43;;
81231;SDS011;70703;55.652;37.710;2023-07-02T00:11:10;11.57;;;8.50;;
81231;SDS011;70703;55.652;37.710;2023-07-02T00:11:23;12.18;;;8.60;;
81231;SDS011;70703;55.652;37.710;2023-07-02T00:11:34;12.90;;;8.85;;
81231;SDS011;70703;55.652;37.710;2023-07-02T00:11:45;13.60;;;8.65;;
81231;SDS011;70703;55.652;37.710;2023-07-02T00:11:58;13.85;;;8.32;;
81231;SDS011;70703;55.652;37.710;2023-07-02T00:12:10;14.25;;;8.25;;
81231;SDS011;70703;55.652;37.710;2023-07-02T00:12:22;15.65;;;8.57;;
81231;SDS011;70703;55.652;37.710;2023-07-02T00:12:33;16.60;;;8.48;;
81231;SDS011;70703;55.652;37.710;2023-07-02T00:12:46;16.58;;;8.60;;
81231;SDS011;70703;55.652;37.710;2023-07-02T00:12:58;14.05;;;8.48;;
81231;SDS011;70703;55.652;37.710;2023-07-02T00:13:10;13.88;;;8.43;;
81231;SDS011;70703;55.652;37.710;2023-07-02T00:13:22;14.25;;;8.52;;
81231;SDS011;70703;55.652;37.710;2023-07-02T00:13:35;14.75;;;8.82;;
81231;SDS011;70703;55.652;37.710;2023-07-02T00:13:46;14.18;;;8.60;;
81231;SDS011;70703;55.652;37.710;2023-07-02T00:13:58;15.00;;;8.50;;
81231;SDS011;70703;55.652;37.710;2023-07-02T00:14:11;17.75;;;8.57;;
81231;SDS011;70703;55.652;37.710;2023-07-02T00:14:23;19.55;;;8.57;;
81231;SDS011;70703;55.652;37.710;2023-07-02T00:14:35;18.63;;;8.40;;
81231;SDS011;70703;55.652;37.710;2023-07-02T00:14:48;15.45;;;8.38;;
81231;SDS011;70703;55.652;37.710;2023-07-02T00:15:04;13.60;;;8.00;;
81231;SDS011;70703;55.652;37.710;2023-07-02T00:15:17;14.70;;;8.20;;
81231;SDS011;70703;55.652;37.710;2023-07-02T00:15:29;14.45;;;8.30;;
81231;SDS011;70703;55.652;37.710;2023-07-02T00:15:41;13.20;;;8.05;;
81231;SDS011;70703;55.652;37.710;2023-07-02T00:15:53;10.18;;;8.02;;
81231;SDS011;70703;55.652;37.710;2023-07-02T00:16:04;9.63;;;8.10;;
81231;SDS011;70703;55.652;37.710;2023-07-02T00:16:16;10.20;;;8.02;;
81231;SDS011;70703;55.652;37.710;2023-07-02T00:16:27;10.38;;;7.65;;
81231;SDS011;70703;55.652;37.710;2023-07-02T00:16:43;10.35;;;7.70;;
81231;SDS011;70703;55.652;37.710;2023-07-02T00:16:57;11.23;;;8.20;;
81231;SDS011;70703;55.652;37.710;2023-07-02T00:17:08;11.55;;;8.00;;
81231;SDS011;70703;55.652;37.710;2023-07-02T00:17:23;12.63;;;8.00;;
81231;SDS011;70703;55.652;37.710;2023-07-02T00:17:35;13.70;;;7.97;;
81231;SDS011;70703;55.652;37.710;2023-07-02T00:17:50;13.68;;;7.90;;
81231;SDS011;70703;55.652;37.710;2023-07-02T00:18:03;11.93;;;8.25;;
81231;SDS011;70703;55.652;37.710;2023-07-02T00:18:16;11.45;;;8.40;;
81231;SDS011;70703;55.652;37.710;2023-07-02T00:18:30;13.55;;;8.10;;
81231;SDS011;70703;55.652;37.710;2023-07-02T00:18:44;15.30;;;7.95;;
81231;SDS011;70703;55.652;37.710;2023-07-02T00:19:03;12.98;;;7.65;;
81231;SDS011;70703;55.652;37.710;2023-07-02T00:19:15;12.82;;;7.50;;
81231;SDS011;70703;55.652;37.710;2023-07-02T00:19:27;12.73;;;7.60;;
81231;SDS011;70703;55.652;37.710;2023-07-02T00:19:39;11.13;;;7.78;;
81231;SDS011;70703;55.652;37.710;2023-07-02T00:19:52;10.88;;;7.72;;
81231;SDS011;70703;55.652;37.710;2023-07-02T00:20:06;11.95;;;8.15;;
81231;SDS011;70703;55.652;37.710;2023-07-02T00:20:24;13.55;;;7.97;;
81231;SDS011;70703;55.652;37.710;2023-07-02T00:20:37;12.25;;;7.90;;
81231;SDS011;70703;55.652;37.710;2023-07-02T00:20:48;11.82;;;7.80;;
81231;SDS011;70703;55.652;37.710;2023-07-02T00:21:01;11.77;;;7.85;;
81231;SDS011;70703;55.652;37.710;2023-07-02T00:21:14;14.05;;;7.80;;
81231;SDS011;70703;55.652;37.710;2023-07-02T00:21:25;13.98;;;7.45;;
81231;SDS011;70703;55.652;37.710;2023-07-02T00:21:39;13.13;;;7.50;;
81231;SDS011;70703;55.652;37.710;2023-07-02T00:21:53;11.88;;;7.60;;
81231;SDS011;70703;55.652;37.710;2023-07-02T00:22:05;11.70;;;7.55;;
81231;SDS011;70703;55.652;37.710;2023-07-02T00:22:17;11.93;;;7.45;;
81231;SDS011;70703;55.652;37.710;2023-07-02T00:22:29;10.95;;;7.50;;
81231;SDS011;70703;55.652;37.710;2023-07-02T00:22:40;11.02;;;7.50;;
81231;SDS011;70703;55.652;37.710;2023-07-02T00:22:56;12.93;;;7.60;;
81231;SDS011;70703;55.652;37.710;2023-07-02T00:23:08;16.92;;;7.90;;
81231;SDS011;70703;55.652;37.710;2023-07-02T00:23:20;15.63;;;7.90;;
81231;SDS011;70703;55.652;37.710;2023-07-02T00:23:34;12.63;;;7.70;;
81231;SDS011;70703;55.652;37.710;2023-07-02T00:23:46;12.25;;;7.75;;
81231;SDS011;70703;55.652;37.710;2023-07-02T00:23:58;12.10;;;7.93;;
81231;SDS011;70703;55.652;37.710;2023-07-02T00:24:11;14.13;;;8.10;;
81231;SDS011;70703;55.652;37.710;2023-07-02T00:24:22;15.00;;;7.90;;
81231;SDS011;70703;55.652;37.710;2023-07-02T00:24:34;15.70;;;7.80;;
81231;SDS011;70703;55.652;37.710;2023-07-02T00:24:46;13.13;;;7.68;;
81231;SDS011;70703;55.652;37.710;2023-07-02T00:24:57;11.15;;;7.88;;
81231;SDS011;70703;55.652;37.710;2023-07-02T00:25:12;10.55;;;7.85;;
81231;SDS011;70703;55.652;37.710;2023-07-02T00:25:23;12.18;;;7.85;;
81231;SDS011;70703;55.652;37.710;2023-07-02T00:25:35;13.93;;;7.72;;
81231;SDS011;70703;55.652;37.710;2023-07-02T00:25:49;15.23;;;7.45;;
81231;SDS011;70703;55.652;37.710;2023-07-02T00:26:01;15.30;;;7.50;;
81231;SDS011;70703;55.652;37.710;2023-07-02T00:26:13;15.20;;;7.65;;
81231;SDS011;70703;55.652;37.710;2023-07-02T00:26:25;14.77;;;7.78;;
81231;SDS011;70703;55.652;37.710;2023-07-02T00:26:37;10.88;;;7.80;;
81231;SDS011;70703;55.652;37.710;2023-07-02T00:26:53;12.00;;;7.82;;
81231;SDS011;70703;55.652;37.710;2023-07-02T00:27:06;14.15;;;8.00;;
81231;SDS011;70703;55.652;37.710;2023-07-02T00:27:18;14.48;;;7.88;;
81231;SDS011;70703;55.652;37.710;2023-07-02T00:27:30;11.98;;;7.43;;
81231;SDS011;70703;55.652;37.710;2023-07-02T00:27:42;12.75;;;7.35;;
81231;SDS011;70703;55.652;37.710;2023-07-02T00:27:53;13.63;;;7.22;;
81231;SDS011;70703;55.652;37.710;2023-07-02T00:28:05;11.52;;;7.10;;
81231;SDS011;70703;55.652;37.710;2023-07-02T00:28:16;11.90;;;7.38;;
81231;SDS011;70703;55.652;37.710;2023-07-02T00:28:28;12.82;;;7.57;;
81231;SDS011;70703;55.652;37.710;2023-07-02T00:28:41;13.90;;;7.78;;
81231;SDS011;70703;55.652;37.710;2023-07-02T00:28:53;13.40;;;7.45;;
81231;SDS011;70703;55.652;37.710;2023-07-02T00:29:05;12.60;;;7.47;;
81231;SDS011;70703;55.652;37.710;2023-07-02T00:29:17;12.38;;;7.65;;
81231;SDS011;70703;55.652;37.710;2023-07-02T00:29:29;11.48;;;7.53;;
81231;SDS011;70703;55.652;37.710;2023-07-02T00:29:41;10.68;;;7.68;;
81231;SDS011;70703;55.652;37.710;2023-07-02T00:29:52;10.90;;;7.65;;
81231;SDS011;70703;55.652;37.710;2023-07-02T00:30:04;13.98;;;7.93;;
81231;SDS011;70703;55.652;37.710;2023-07-02T00:30:17;14.02;;;7.68;;
81231;SDS011;70703;55.652;37.710;2023-07-02T00:30:29;12.20;;;7.40;;
81231;SDS011;70703;55.652;37.710;2023-07-02T00:30:41;11.55;;;7.70;;
81231;SDS011;70703;55.652;37.710;2023-07-02T00:30:53;12.38;;;7.93;;
81231;SDS011;70703;55.652;37.710;2023-07-02T00:31:05;11.45;;;7.78;;
81231;SDS011;70703;55.652;37.710;2023-07-02T00:31:19;13.32;;;7.57;;
81231;SDS011;70703;55.652;37.710;2023-07-02T00:31:30;13.82;;;7.32;;
81231;SDS011;70703;55.652;37.710;2023-07-02T00:31:42;13.43;;;7.43;;
81231;SDS011;70703;55.652;37.710;2023-07-02T00:31:54;13.30;;;7.57;;
81231;SDS011;70703;55.652;37.710;2023-07-02T00:32:07;12.07;;;7.70;;
81231;SDS011;70703;55.652;37.710;2023-07-02T00:32:19;11.10;;;7.60;;
81231;SDS011;70703;55.652;37.710;2023-07-02T00:32:31;11.85;;;7.70;;
81231;SDS011;70703;55.652;37.710;2023-07-02T00:32:42;13.30;;;7.45;;
81231;SDS011;70703;55.652;37.710;2023-07-02T00:32:54;17.25;;;7.53;;
81231;SDS011;70703;55.652;37.710;2023-07-02T00:33:07;17.48;;;7.65;;
81231;SDS011;70703;55.652;37.710;2023-07-02T00:33:19;12.98;;;7.60;;
81231;SDS011;70703;55.652;37.710;2023-07-02T00:33:31;11.90;;;7.57;;
81231;SDS011;70703;55.652;37.710;2023-07-02T00:33:43;11.60;;;7.68;;
81231;SDS011;70703;55.652;37.710;2023-07-02T00:33:56;13.48;;;7.85;;
81231;SDS011;70703;55.652;37.710;2023-07-02T00:34:07;14.60;;;8.20;;
81231;SDS011;70703;55.652;37.710;2023-07-02T00:34:19;12.55;;;7.97;;
81231;SDS011;70703;55.652;37.710;2023-07-02T00:34:31;12.18;;;7.68;;
81231;SDS011;70703;55.652;37.710;2023-07-02T00:34:43;11.95;;;7.78;;
81231;SDS011;70703;55.652;37.710;2023-07-02T00:34:54;12.18;;;7.95;;
81231;SDS011;70703;55.652;37.710;2023-07-02T00:35:06;12.63;;;7.85;;
81231;SDS011;70703;55.652;37.710;2023-07-02T00:35:19;12.00;;;7.72;;
81231;SDS011;70703;55.652;37.710;2023-07-02T00:35:31;13.05;;;7.63;;
81231;SDS011;70703;55.652;37.710;2023-07-02T00:35:44;12.30;;;7.60;;
81231;SDS011;70703;55.652;37.710;2023-07-02T00:35:56;14.23;;;7.47;;
81231;SDS011;70703;55.652;37.710;2023-07-02T00:36:08;13.52;;;7.60;;
81231;SDS011;70703;55.652;37.710;2023-07-02T00:36:24;11.63;;;7.50;;
81231;SDS011;70703;55.652;37.710;2023-07-02T00:36:36;12.63;;;7.50;;
81231;SDS011;70703;55.652;37.710;2023-07-02T00:36:47;14.63;;;7.63;;
81231;SDS011;70703;55.652;37.710;2023-07-02T00:37:00;13.77;;;7.72;;
81231;SDS011;70703;55.652;37.710;2023-07-02T00:37:12;11.95;;;7.55;;
81231;SDS011;70703;55.652;37.710;2023-07-02T00:37:25;11.93;;;7.38;;
81231;SDS011;70703;55.652;37.710;2023-07-02T00:37:37;11.25;;;7.55;;
81231;SDS011;70703;55.652;37.710;2023-07-02T00:37:49;11.35;;;7.63;;
81231;SDS011;70703;55.652;37.710;2023-07-02T00:38:00;11.88;;;7.63;;
81231;SDS011;70703;55.652;37.710;2023-07-02T00:38:13;11.07;;;7.40;;
81231;SDS011;70703;55.652;37.710;2023-07-02T00:38:25;10.93;;;7.40;;
81231;SDS011;70703;55.652;37.710;2023-07-02T00:38:36;11.43;;;7.28;;
81231;SDS011;70703;55.652;37.710;2023-07-02T00:38:48;12.00;;;7.40;;
81231;SDS011;70703;55.652;37.710;2023-07-02T00:39:00;11.80;;;7.50;;
81231;SDS011;70703;55.652;37.710;2023-07-02T00:39:14;11.43;;;7.68;;
81231;SDS011;70703;55.652;37.710;2023-07-02T00:39:28;10.32;;;7.30;;
81231;SDS011;70703;55.652;37.710;2023-07-02T00:39:41;10.43;;;7.30;;
81231;SDS011;70703;55.652;37.710;2023-07-02T00:39:53;12.25;;;7.40;;
81231;SDS011;70703;55.652;37.710;2023-07-02T00:40:05;14.07;;;7.53;;
81231;SDS011;70703;55.652;37.710;2023-07-02T00:40:18;14.43;;;7.45;;
81231;SDS011;70703;55.652;37.710;2023-07-02T00:40:31;12.40;;;7.40;;
81231;SDS011;70703;55.652;37.710;2023-07-02T00:40:44;12.20;;;7.47;;
81231;SDS011;70703;55.652;37.710;2023-07-02T00:40:58;12.75;;;7.63;;
81231;SDS011;70703;55.652;37.710;2023-07-02T00:41:10;11.73;;;7.60;;
81231;SDS011;70703;55.652;37.710;2023-07-02T00:41:22;10.75;;;7.65;;
81231;SDS011;70703;55.652;37.710;2023-07-02T00:41:34;12.57;;;8.02;;
81231;SDS011;70703;55.652;37.710;2023-07-02T00:41:46;13.05;;;8.15;;
81231;SDS011;70703;55.652;37.710;2023-07-02T00:42:00;14.95;;;7.97;;
81231;SDS011;70703;55.652;37.710;2023-07-02T00:42:13;14.45;;;7.35;;
81231;SDS011;70703;55.652;37.710;2023-07-02T00:42:24;13.10;;;7.20;;
81231;SDS011;70703;55.652;37.710;2023-07-02T00:42:40;12.73;;;7.43;;
81231;SDS011;70703;55.652;37.710;2023-07-02T00:42:53;13.63;;;7.53;;
81231;SDS011;70703;55.652;37.710;2023-07-02T00:43:05;14.18;;;7.55;;
81231;SDS011;70703;55.652;37.710;2023-07-02T00:43:21;14.73;;;7.80;;
81231;SDS011;70703;55.652;37.710;2023-07-02T00:43:32;14.18;;;7.80;;
81231;SDS011;70703;55.652;37.710;2023-07-02T00:43:45;12.43;;;7.72;;
81231;SDS011;70703;55.652;37.710;2023-07-02T00:43:57;12.20;;;7.70;;
81231;SDS011;70703;55.652;37.710;2023-07-02T00:44:09;12.70;;;7.65;;
81231;SDS011;70703;55.652;37.710;2023-07-02T00:44:21;13.00;;;7.57;;
81231;SDS011;70703;55.652;37.710;2023-07-02T00:44:32;14.20;;;7.50;;
81231;SDS011;70703;55.652;37.710;2023-07-02T00:44:51;15.38;;;7.45;;
81231;SDS011;70703;55.652;37.710;2023-07-02T00:45:03;14.57;;;7.47;;
81231;SDS011;70703;55.652;37.710;2023-07-02T00:45:17;13.88;;;7.60;;
81231;SDS011;70703;55.652;37.710;2023-07-02T00:45:29;12.40;;;7.90;;
81231;SDS011;70703;55.652;37.710;2023-07-02T00:45:42;12.80;;;7.88;;
81231;SDS011;70703;55.652;37.710;2023-07-02T00:45:56;12.10;;;7.63;;
81231;SDS011;70703;55.652;37.710;2023-07-02T00:46:11;11.95;;;7.30;;
81231;SDS011;70703;55.652;37.710;2023-07-02T00:46:28;13.35;;;7.10;;
81231;SDS011;70703;55.652;37.710;2023-07-02T00:46:41;12.27;;;7.20;;
81231;SDS011;70703;55.652;37.710;2023-07-02T00:46:52;11.93;;;7.47;;
81231;SDS011;70703;55.652;37.710;2023-07-02T00:47:06;12.40;;;7.75;;
81231;SDS011;70703;55.652;37.710;2023-07-02T00:47:18;12.38;;;7.68;;
81231;SDS011;70703;55.652;37.710;2023-07-02T00:47:30;12.32;;;7.47;;
81231;SDS011;70703;55.652;37.710;2023-07-02T00:47:44;12.15;;;7.25;;
81231;SDS011;70703;55.652;37.710;2023-07-02T00:47:58;11.88;;;7.60;;
81231;SDS011;70703;55.652;37.710;2023-07-02T00:48:10;11.40;;;7.55;;
81231;SDS011;70703;55.652;37.710;2023-07-02T00:48:21;12.15;;;7.68;;
81231;SDS011;70703;55.652;37.710;2023-07-02T00:48:34;13.00;;;7.70;;
81231;SDS011;70703;55.652;37.710;2023-07-02T00:48:47;14.02;;;7.57;;
81231;SDS011;70703;55.652;37.710;2023-07-02T00:48:59;11.13;;;7.63;;
81231;SDS011;70703;55.652;37.710;2023-07-02T00:49:15;12.60;;;7.97;;
81231;SDS011;70703;55.652;37.710;2023-07-02T00:49:28;13.45;;;7.82;;
81231;SDS011;70703;55.652;37.710;2023-07-02T00:49:39;13.15;;;7.63;;
81231;SDS011;70703;55.652;37.710;2023-07-02T00:49:51;13.65;;;7.47;;
81231;SDS011;70703;55.652;37.710;2023-07-02T00:50:03;12.88;;;7.60;;
81231;SDS011;70703;55.652;37.710;2023-07-02T00:50:18;13.85;;;7.80;;
81231;SDS011;70703;55.652;37.710;2023-07-02T00:50:31;13.05;;;7.80;;
81231;SDS011;70703;55.652;37.710;2023-07-02T00:50:43;11.48;;;7.72;;
81231;SDS011;70703;55.652;37.710;2023-07-02T00:50:56;11.10;;;7.53;;
81231;SDS011;70703;55.652;37.710;2023-07-02T00:51:07;11.45;;;7.18;;
81231;SDS011;70703;55.652;37.710;2023-07-02T00:51:20;12.23;;;7.43;;
81231;SDS011;70703;55.652;37.710;2023-07-02T00:51:32;11.32;;;7.63;;
81231;SDS011;70703;55.652;37.710;2023-07-02T00:51:45;13.98;;;7.55;;
81231;SDS011;70703;55.652;37.710;2023-07-02T00:51:59;13.95;;;7.22;;
81231;SDS011;70703;55.652;37.710;2023-07-02T00:52:11;12.23;;;7.20;;
81231;SDS011;70703;55.652;37.710;2023-07-02T00:52:26;11.90;;;7.25;;
81231;SDS011;70703;55.652;37.710;2023-07-02T00:52:38;13.05;;;7.20;;
81231;SDS011;70703;55.652;37.710;2023-07-02T00:52:49;14.77;;;7.40;;
81231;SDS011;70703;55.652;37.710;2023-07-02T00:53:04;13.57;;;7.50;;
81231;SDS011;70703;55.652;37.710;2023-07-02T00:53:16;11.77;;;7.50;;
81231;SDS011;70703;55.652;37.710;2023-07-02T00:53:30;11.35;;;7.50;;
81231;SDS011;70703;55.652;37.710;2023-07-02T00:53:43;13.68;;;7.43;;
81231;SDS011;70703;55.652;37.710;2023-07-02T00:53:56;13.85;;;7.22;;
81231;SDS011;70703;55.652;37.710;2023-07-02T00:54:10;10.90;;;7.03;;
81231;SDS011;70703;55.652;37.710;2023-07-02T00:54:22;13.18;;;7.20;;
81231;SDS011;70703;55.652;37.710;2023-07-02T00:54:33;13.25;;;7.38;;
81231;SDS011;70703;55.652;37.710;2023-07-02T00:54:46;12.70;;;7.47;;
81231;SDS011;70703;55.652;37.710;2023-07-02T00:54:58;10.32;;;7.32;;
81231;SDS011;70703;55.652;37.710;2023-07-02T00:55:10;9.55;;;7.15;;
81231;SDS011;70703;55.652;37.710;2023-07-02T00:55:21;11.52;;;7.45;;
81231;SDS011;70703;55.652;37.710;2023-07-02T00:55:32;13.60;;;7.43;;
81231;SDS011;70703;55.652;37.710;2023-07-02T00:55:43;13.23;;;7.35;;
81231;SDS011;70703;55.652;37.710;2023-07-02T00:55:55;12.73;;;7.55;;
81231;SDS011;70703;55.652;37.710;2023-07-02T00:56:07;13.13;;;7.70;;
81231;SDS011;70703;55.652;37.710;2023-07-02T00:56:19;14.00;;;7.95;;
81231;SDS011;70703;55.652;37.710;2023-07-02T00:56:32;13.32;;;7.80;;
81231;SDS011;70703;55.652;37.710;2023-07-02T00:56:44;15.52;;;7.70;;
81231;SDS011;70703;55.652;37.710;2023-07-02T00:56:58;14.15;;;7.72;;
81231;SDS011;70703;55.652;37.710;2023-07-02T00:57:13;11.65;;;8.02;;
81231;SDS011;70703;55.652;37.710;2023-07-02T00:57:25;12.57;;;7.78;;
81231;SDS011;70703;55.652;37.710;2023-07-02T00:57:39;13.13;;;7.50;;
81231;SDS011;70703;55.652;37.710;2023-07-02T00:57:57;11.73;;;7.45;;
81231;SDS011;70703;55.652;37.710;2023-07-02T00:58:10;11.15;;;7.70;;
81231;SDS011;70703;55.652;37.710;2023-07-02T00:58:23;10.77;;;7.70;;
81231;SDS011;70703;55.652;37.710;2023-07-02T00:58:37;9.15;;;7.28;;
81231;SDS011;70703;55.652;37.710;2023-07-02T00:58:51;10.80;;;7.28;;
81231;SDS011;70703;55.652;37.710;2023-07-02T00:59:08;14.77;;;7.70;;
81231;SDS011;70703;55.652;37.710;2023-07-02T00:59:20;13.38;;;7.60;;
81231;SDS011;70703;55.652;37.710;2023-07-02T00:59:31;11.75;;;7.63;;
81231;SDS011;70703;55.652;37.710;2023-07-02T00:59:46;9.57;;;7.60;;
81231;SDS011;70703;55.652;37.710;2023-07-02T00:59:59;11.52;;;7.50;;
81231;SDS011;70703;55.652;37.710;2023-07-02T01:00:11;12.50;;;7.53;;
81231;SDS011;70703;55.652;37.710;2023-07-02T01:00:32;11.43;;;7.35;;
81231;SDS011;70703;55.652;37.710;2023-07-02T01:00:44;13.40;;;7.55;;
81231;SDS011;70703;55.652;37.710;2023-07-02T01:01:09;13.32;;;7.53;;
81231;SDS011;70703;55.652;37.710;2023-07-02T01:01:27;15.90;;;7.68;;
81231;SDS011;70703;55.652;37.710;2023-07-02T01:01:49;14.25;;;7.60;;
81231;SDS011;70703;55.652;37.710;2023-07-02T01:02:06;14.23;;;7.82;;
81231;SDS011;70703;55.652;37.710;2023-07-02T01:02:19;11.05;;;7.55;;
81231;SDS011;70703;55.652;37.710;2023-07-02T01:02:31;10.88;;;7.25;;
81231;SDS011;70703;55.652;37.710;2023-07-02T01:02:43;10.45;;;7.30;;
81231;SDS011;70703;55.652;37.710;2023-07-02T01:03:07;14.07;;;7.68;;
81231;SDS011;70703;55.652;37.710;2023-07-02T01:03:23;13.85;;;8.07;;
81231;SDS011;70703;55.652;37.710;2023-07-02T01:03:35;11.27;;;7.95;;
81231;SDS011;70703;55.652;37.710;2023-07-02T01:03:51;13.23;;;7.93;;
81231;SDS011;70703;55.652;37.710;2023-07-02T01:04:06;12.77;;;7.57;;
81231;SDS011;70703;55.652;37.710;2023-07-02T01:04:18;13.00;;;7.60;;
81231;SDS011;70703;55.652;37.710;2023-07-02T01:04:29;12.90;;;7.80;;
81231;SDS011;70703;55.652;37.710;2023-07-02T01:04:41;13.63;;;7.72;;
81231;SDS011;70703;55.652;37.710;2023-07-02T01:05:00;13.00;;;8.00;;
81231;SDS011;70703;55.652;37.710;2023-07-02T01:05:15;13.05;;;7.85;;
81231;SDS011;70703;55.652;37.710;2023-07-02T01:05:28;13.07;;;7.47;;
81231;SDS011;70703;55.652;37.710;2023-07-02T01:05:46;11.60;;;7.72;;
81231;SDS011;70703;55.652;37.710;2023-07-02T01:05:57;11.15;;;7.80;;
81231;SDS011;70703;55.652;37.710;2023-07-02T01:06:10;10.90;;;7.78;;
81231;SDS011;70703;55.652;37.710;2023-07-02T01:06:24;10.88;;;7.60;;
81231;SDS011;70703;55.652;37.710;2023-07-02T01:06:37;10.90;;;7.63;;
81231;SDS011;70703;55.652;37.710;2023-07-02T01:06:51;10.40;;;7.38;;
81231;SDS011;70703;55.652;37.710;2023-07-02T01:07:11;13.57;;;7.85;;
81231;SDS011;70703;55.652;37.710;2023-07-02T01:07:22;15.30;;;8.13;;
81231;SDS011;70703;55.652;37.710;2023-07-02T01:07:35;14.50;;;8.00;;
81231;SDS011;70703;55.652;37.710;2023-07-02T01:07:46;11.35;;;7.63;;
81231;SDS011;70703;55.652;37.710;2023-07-02T01:07:59;11.00;;;7.50;;
81231;SDS011;70703;55.652;37.710;2023-07-02T01:08:10;10.63;;;7.30;;
81231;SDS011;70703;55.652;37.710;2023-07-02T01:08:22;11.65;;;7.40;;
81231;SDS011;70703;55.652;37.710;2023-07-02T01:08:36;12.88;;;7.22;;
81231;SDS011;70703;55.652;37.710;2023-07-02T01:08:48;13.48;;;7.57;;
81231;SDS011;70703;55.652;37.710;2023-07-02T01:09:00;13.15;;;7.88;;
81231;SDS011;70703;55.652;37.710;2023-07-02T01:09:15;14.50;;;7.65;;
81231;SDS011;70703;55.652;37.710;2023-07-02T01:09:27;13.32;;;7.63;;
81231;SDS011;70703;55.652;37.710;2023-07-02T01:09:39;11.48;;;7.55;;
81231;SDS011;70703;55.652;37.710;2023-07-02T01:09:51;12.43;;;7.65;;
81231;SDS011;70703;55.652;37.710;2023-07-02T01:10:03;12.80;;;7.95;;
81231;SDS011;70703;55.652;37.710;2023-07-02T01:10:20;12.25;;;7.97;;
81231;SDS011;70703;55.652;37.710;2023-07-02T01:10:31;11.50;;;7.75;;
81231;SDS011;70703;55.652;37.710;2023-07-02T01:10:45;11.10;;;7.65;;
81231;SDS011;70703;55.652;37.710;2023-07-02T01:10:57;11.15;;;7.65;;
81231;SDS011;70703;55.652;37.710;2023-07-02T01:11:10;12.10;;;7.60;;
81231;SDS011;70703;55.652;37.710;2023-07-02T01:11:23;10.77;;;7.40;;
81231;SDS011;70703;55.652;37.710;2023-07-02T01:11:40;10.05;;;7.35;;
81231;SDS011;70703;55.652;37.710;2023-07-02T01:11:56;10.23;;;7.80;;
81231;SDS011;70703;55.652;37.710;2023-07-02T01:12:10;12.70;;;7.78;;
81231;SDS011;70703;55.652;37.710;2023-07-02T01:12:23;13.10;;;7.60;;
81231;SDS011;70703;55.652;37.710;2023-07-02T01:12:36;12.63;;;7.55;;
81231;SDS011;70703;55.652;37.710;2023-07-02T01:12:49;12.57;;;7.75;;
81231;SDS011;70703;55.652;37.710;2023-07-02T01:13:04;12.20;;;7.80;;
81231;SDS011;70703;55.652;37.710;2023-07-02T01:13:21;11.07;;;7.60;;
81231;SDS011;70703;55.652;37.710;2023-07-02T01:13:35;12.20;;;7.68;;
81231;SDS011;70703;55.652;37.710;2023-07-02T01:13:47;13.32;;;7.65;;
81231;SDS011;70703;55.652;37.710;2023-07-02T01:14:02;15.57;;;7.65;;
81231;SDS011;70703;55.652;37.710;2023-07-02T01:14:17;14.68;;;7.68;;
81231;SDS011;70703;55.652;37.710;2023-07-02T01:14:33;11.85;;;7.38;;
81231;SDS011;70703;55.652;37.710;2023-07-02T01:14:47;10.88;;;7.47;;
81231;SDS011;70703;55.652;37.710;2023-07-02T01:15:02;12.55;;;7.68;;
81231;SDS011;70703;55.652;37.710;2023-07-02T01:15:20;12.45;;;7.75;;
81231;SDS011;70703;55.652;37.710;2023-07-02T01:15:32;10.88;;;7.63;;
81231;SDS011;70703;55.652;37.710;2023-07-02T01:15:44;10.80;;;7.60;;
81231;SDS011;70703;55.652;37.710;2023-07-02T01:15:55;11.38;;;7.68;;
81231;SDS011;70703;55.652;37.710;2023-07-02T01:16:07;12.77;;;7.70;;